sensor_id;sensor_type;location;lat;lon;timestamp;temperature;humidity
21061;DHT22;10689;50.836;3.266;2022-11-24T00:01:49;10.10;99.90
21061;DHT22;10689;50.836;3.266;2022-11-24T00:04:15;10.20;99.90
21061;DHT22;10689;50.836;3.266;2022-11-24T00:06:41;10.20;99.90
21061;DHT22;10689;50.836;3.266;2022-11-24T00:09:12;10.20;99.90
21061;DHT22;10689;50.836;3.266;2022-11-24T00:11:38;10.20;99.90
21061;DHT22;10689;50.836;3.266;2022-11-24T00:14:05;10.20;99.90
21061;DHT22;10689;50.836;3.266;2022-11-24T00:16:33;10.20;99.90
21061;DHT22;10689;50.836;3.266;2022-11-24T00:19:03;10.20;99.90
21061;DHT22;10689;50.836;3.266;2022-11-24T00:21:30;10.20;99.90
21061;DHT22;10689;50.836;3.266;2022-11-24T00:23:57;10.30;99.90
21061;DHT22;10689;50.836;3.266;2022-11-24T00:26:28;10.30;99.90
21061;DHT22;10689;50.836;3.266;2022-11-24T00:28:57;10.30;99.90
21061;DHT22;10689;50.836;3.266;2022-11-24T00:31:30;10.30;99.90
21061;DHT22;10689;50.836;3.266;2022-11-24T00:33:59;10.30;99.90
21061;DHT22;10689;50.836;3.266;2022-11-24T00:36:27;10.40;99.90
21061;DHT22;10689;50.836;3.266;2022-11-24T00:38:54;10.40;99.90
21061;DHT22;10689;50.836;3.266;2022-11-24T00:41:23;10.40;99.90
21061;DHT22;10689;50.836;3.266;2022-11-24T00:43:52;10.30;99.90
21061;DHT22;10689;50.836;3.266;2022-11-24T00:46:18;10.30;99.90
21061;DHT22;10689;50.836;3.266;2022-11-24T00:48:49;10.30;99.90
21061;DHT22;10689;50.836;3.266;2022-11-24T00:51:20;10.30;99.90
21061;DHT22;10689;50.836;3.266;2022-11-24T00:53:48;10.30;99.90
21061;DHT22;10689;50.836;3.266;2022-11-24T00:56:14;10.30;99.90
21061;DHT22;10689;50.836;3.266;2022-11-24T00:58:41;10.30;99.90
21061;DHT22;10689;50.836;3.266;2022-11-24T01:01:10;10.30;99.90
21061;DHT22;10689;50.836;3.266;2022-11-24T01:03:40;10.40;99.90
21061;DHT22;10689;50.836;3.266;2022-11-24T01:06:12;10.40;99.90
21061;DHT22;10689;50.836;3.266;2022-11-24T01:08:39;10.30;99.90
21061;DHT22;10689;50.836;3.266;2022-11-24T01:11:16;10.30;99.90
21061;DHT22;10689;50.836;3.266;2022-11-24T01:13:44;10.40;99.90
21061;DHT22;10689;50.836;3.266;2022-11-24T01:16:19;10.50;99.90
21061;DHT22;10689;50.836;3.266;2022-11-24T01:18:46;10.50;99.90
21061;DHT22;10689;50.836;3.266;2022-11-24T01:21:12;10.50;99.90
21061;DHT22;10689;50.836;3.266;2022-11-24T01:23:37;10.30;99.90
21061;DHT22;10689;50.836;3.266;2022-11-24T01:26:08;10.40;99.90
21061;DHT22;10689;50.836;3.266;2022-11-24T01:28:34;10.40;99.90
21061;DHT22;10689;50.836;3.266;2022-11-24T01:31:02;10.40;99.90
21061;DHT22;10689;50.836;3.266;2022-11-24T01:33:30;10.30;99.90
21061;DHT22;10689;50.836;3.266;2022-11-24T01:35:57;9.70;99.90
21061;DHT22;10689;50.836;3.266;2022-11-24T01:38:23;9.10;99.90
21061;DHT22;10689;50.836;3.266;2022-11-24T01:40:58;8.80;99.90
21061;DHT22;10689;50.836;3.266;2022-11-24T01:43:25;8.60;99.90
21061;DHT22;10689;50.836;3.266;2022-11-24T01:45:51;8.70;99.90
21061;DHT22;10689;50.836;3.266;2022-11-24T01:48:32;8.70;99.90
21061;DHT22;10689;50.836;3.266;2022-11-24T01:51:11;8.70;99.90
21061;DHT22;10689;50.836;3.266;2022-11-24T01:53:39;8.70;99.90
21061;DHT22;10689;50.836;3.266;2022-11-24T01:56:09;8.60;99.90
21061;DHT22;10689;50.836;3.266;2022-11-24T01:58:36;8.60;99.90
21061;DHT22;10689;50.836;3.266;2022-11-24T02:01:03;8.60;99.90
21061;DHT22;10689;50.836;3.266;2022-11-24T02:03:35;8.70;99.90
21061;DHT22;10689;50.836;3.266;2022-11-24T02:06:10;8.70;99.90
21061;DHT22;10689;50.836;3.266;2022-11-24T02:11:36;8.80;99.90
21061;DHT22;10689;50.836;3.266;2022-11-24T02:14:06;8.80;99.90
21061;DHT22;10689;50.836;3.266;2022-11-24T02:16:34;8.80;99.90
21061;DHT22;10689;50.836;3.266;2022-11-24T02:19:02;8.70;99.90
21061;DHT22;10689;50.836;3.266;2022-11-24T02:21:34;8.70;99.90
21061;DHT22;10689;50.836;3.266;2022-11-24T02:24:08;8.70;99.90
21061;DHT22;10689;50.836;3.266;2022-11-24T02:26:43;8.60;99.90
21061;DHT22;10689;50.836;3.266;2022-11-24T02:29:14;8.80;99.90
21061;DHT22;10689;50.836;3.266;2022-11-24T02:31:54;8.90;99.90
21061;DHT22;10689;50.836;3.266;2022-11-24T02:34:22;8.90;99.90
21061;DHT22;10689;50.836;3.266;2022-11-24T02:36:48;8.80;99.90
21061;DHT22;10689;50.836;3.266;2022-11-24T02:39:16;8.80;99.90
21061;DHT22;10689;50.836;3.266;2022-11-24T02:41:51;8.80;99.90
21061;DHT22;10689;50.836;3.266;2022-11-24T02:44:19;8.70;99.90
21061;DHT22;10689;50.836;3.266;2022-11-24T02:46:48;8.70;99.90
21061;DHT22;10689;50.836;3.266;2022-11-24T02:49:16;8.70;99.90
21061;DHT22;10689;50.836;3.266;2022-11-24T02:51:42;8.70;99.90
21061;DHT22;10689;50.836;3.266;2022-11-24T02:54:08;8.60;99.90
21061;DHT22;10689;50.836;3.266;2022-11-24T02:56:39;8.60;99.90
21061;DHT22;10689;50.836;3.266;2022-11-24T02:59:07;8.50;99.90
21061;DHT22;10689;50.836;3.266;2022-11-24T03:01:33;8.60;99.90
21061;DHT22;10689;50.836;3.266;2022-11-24T03:04:02;8.70;99.90
21061;DHT22;10689;50.836;3.266;2022-11-24T03:06:28;8.70;99.90
21061;DHT22;10689;50.836;3.266;2022-11-24T03:08:58;8.60;99.90
21061;DHT22;10689;50.836;3.266;2022-11-24T03:11:24;8.70;99.90
21061;DHT22;10689;50.836;3.266;2022-11-24T03:13:50;8.80;99.90
21061;DHT22;10689;50.836;3.266;2022-11-24T03:16:16;8.80;99.90
21061;DHT22;10689;50.836;3.266;2022-11-24T03:18:42;8.80;99.90
21061;DHT22;10689;50.836;3.266;2022-11-24T03:21:08;8.80;99.90
21061;DHT22;10689;50.836;3.266;2022-11-24T03:23:36;8.90;99.90
21061;DHT22;10689;50.836;3.266;2022-11-24T03:26:14;8.90;99.90
21061;DHT22;10689;50.836;3.266;2022-11-24T03:28:40;8.90;99.90
21061;DHT22;10689;50.836;3.266;2022-11-24T03:31:07;8.90;99.90
21061;DHT22;10689;50.836;3.266;2022-11-24T03:33:33;9.00;99.90
21061;DHT22;10689;50.836;3.266;2022-11-24T03:35:59;9.00;99.90
21061;DHT22;10689;50.836;3.266;2022-11-24T03:38:28;9.10;99.90
21061;DHT22;10689;50.836;3.266;2022-11-24T03:40:54;9.00;99.90
21061;DHT22;10689;50.836;3.266;2022-11-24T03:43:20;9.00;99.90
21061;DHT22;10689;50.836;3.266;2022-11-24T03:45:49;8.90;99.90
21061;DHT22;10689;50.836;3.266;2022-11-24T03:48:18;8.90;99.90
21061;DHT22;10689;50.836;3.266;2022-11-24T03:50:58;8.80;99.90
21061;DHT22;10689;50.836;3.266;2022-11-24T03:53:26;8.70;99.90
21061;DHT22;10689;50.836;3.266;2022-11-24T03:55:55;8.80;99.90
21061;DHT22;10689;50.836;3.266;2022-11-24T03:58:21;8.80;99.90
21061;DHT22;10689;50.836;3.266;2022-11-24T04:00:48;8.80;99.90
21061;DHT22;10689;50.836;3.266;2022-11-24T04:03:14;8.80;99.90
21061;DHT22;10689;50.836;3.266;2022-11-24T04:05:40;8.70;99.90
21061;DHT22;10689;50.836;3.266;2022-11-24T04:08:06;8.70;99.90
21061;DHT22;10689;50.836;3.266;2022-11-24T04:10:36;8.60;99.90
21061;DHT22;10689;50.836;3.266;2022-11-24T04:13:13;8.60;99.90
21061;DHT22;10689;50.836;3.266;2022-11-24T04:15:41;8.60;99.90
21061;DHT22;10689;50.836;3.266;2022-11-24T04:18:07;8.50;99.90
21061;DHT22;10689;50.836;3.266;2022-11-24T04:20:37;8.60;99.90
21061;DHT22;10689;50.836;3.266;2022-11-24T04:23:03;8.50;99.90
21061;DHT22;10689;50.836;3.266;2022-11-24T04:25:29;8.40;99.90
21061;DHT22;10689;50.836;3.266;2022-11-24T04:27:55;8.20;99.90
21061;DHT22;10689;50.836;3.266;2022-11-24T04:30:23;8.30;99.90
21061;DHT22;10689;50.836;3.266;2022-11-24T04:32:49;8.30;99.90
21061;DHT22;10689;50.836;3.266;2022-11-24T04:35:17;8.30;99.90
21061;DHT22;10689;50.836;3.266;2022-11-24T04:37:44;8.20;99.90
21061;DHT22;10689;50.836;3.266;2022-11-24T04:40:10;8.10;99.90
21061;DHT22;10689;50.836;3.266;2022-11-24T04:42:39;8.10;99.90
21061;DHT22;10689;50.836;3.266;2022-11-24T04:45:08;8.10;99.90
21061;DHT22;10689;50.836;3.266;2022-11-24T04:47:37;8.10;99.90
21061;DHT22;10689;50.836;3.266;2022-11-24T04:50:07;8.10;99.90
21061;DHT22;10689;50.836;3.266;2022-11-24T04:52:35;8.10;99.90
21061;DHT22;10689;50.836;3.266;2022-11-24T04:55:00;8.20;99.90
21061;DHT22;10689;50.836;3.266;2022-11-24T04:57:29;8.20;99.90
21061;DHT22;10689;50.836;3.266;2022-11-24T04:59:55;8.20;99.90
21061;DHT22;10689;50.836;3.266;2022-11-24T05:02:22;8.20;99.90
21061;DHT22;10689;50.836;3.266;2022-11-24T05:04:50;8.10;99.90
21061;DHT22;10689;50.836;3.266;2022-11-24T05:07:21;8.00;99.90
21061;DHT22;10689;50.836;3.266;2022-11-24T05:09:49;8.00;99.90
21061;DHT22;10689;50.836;3.266;2022-11-24T05:12:36;8.00;99.90
21061;DHT22;10689;50.836;3.266;2022-11-24T05:15:03;8.00;99.90
21061;DHT22;10689;50.836;3.266;2022-11-24T05:17:31;8.00;99.90
21061;DHT22;10689;50.836;3.266;2022-11-24T05:20:00;8.10;99.90
21061;DHT22;10689;50.836;3.266;2022-11-24T05:22:27;8.10;99.90
21061;DHT22;10689;50.836;3.266;2022-11-24T05:24:54;8.10;99.90
21061;DHT22;10689;50.836;3.266;2022-11-24T05:27:20;8.00;99.90
21061;DHT22;10689;50.836;3.266;2022-11-24T05:29:45;8.00;99.90
21061;DHT22;10689;50.836;3.266;2022-11-24T05:32:16;8.00;99.90
21061;DHT22;10689;50.836;3.266;2022-11-24T05:34:44;8.00;99.90
21061;DHT22;10689;50.836;3.266;2022-11-24T05:37:13;8.10;99.90
21061;DHT22;10689;50.836;3.266;2022-11-24T05:39:39;8.10;99.90
21061;DHT22;10689;50.836;3.266;2022-11-24T05:42:09;8.10;99.90
21061;DHT22;10689;50.836;3.266;2022-11-24T05:44:53;8.10;99.90
21061;DHT22;10689;50.836;3.266;2022-11-24T05:47:22;8.00;99.90
21061;DHT22;10689;50.836;3.266;2022-11-24T05:49:48;8.00;99.90
21061;DHT22;10689;50.836;3.266;2022-11-24T05:52:16;8.00;99.90
21061;DHT22;10689;50.836;3.266;2022-11-24T05:54:44;8.10;99.90
21061;DHT22;10689;50.836;3.266;2022-11-24T05:57:10;8.10;99.90
21061;DHT22;10689;50.836;3.266;2022-11-24T05:59:36;8.00;99.90
21061;DHT22;10689;50.836;3.266;2022-11-24T06:02:01;7.90;99.90
21061;DHT22;10689;50.836;3.266;2022-11-24T06:04:28;7.90;99.90
21061;DHT22;10689;50.836;3.266;2022-11-24T06:06:53;7.90;99.90
21061;DHT22;10689;50.836;3.266;2022-11-24T06:09:19;7.90;99.90
21061;DHT22;10689;50.836;3.266;2022-11-24T06:11:47;7.90;99.90
21061;DHT22;10689;50.836;3.266;2022-11-24T06:14:13;8.10;99.90
21061;DHT22;10689;50.836;3.266;2022-11-24T06:16:39;8.30;99.90
21061;DHT22;10689;50.836;3.266;2022-11-24T06:19:05;8.20;99.90
21061;DHT22;10689;50.836;3.266;2022-11-24T06:21:31;8.20;99.90
21061;DHT22;10689;50.836;3.266;2022-11-24T06:23:57;8.20;99.90
21061;DHT22;10689;50.836;3.266;2022-11-24T06:26:27;8.20;99.90
21061;DHT22;10689;50.836;3.266;2022-11-24T06:28:54;8.20;99.90
21061;DHT22;10689;50.836;3.266;2022-11-24T06:31:23;8.30;99.90
21061;DHT22;10689;50.836;3.266;2022-11-24T06:33:49;8.30;99.90
21061;DHT22;10689;50.836;3.266;2022-11-24T06:36:14;8.20;99.90
21061;DHT22;10689;50.836;3.266;2022-11-24T06:38:43;8.20;99.90
21061;DHT22;10689;50.836;3.266;2022-11-24T06:41:12;8.30;99.90
21061;DHT22;10689;50.836;3.266;2022-11-24T06:43:39;8.20;99.90
21061;DHT22;10689;50.836;3.266;2022-11-24T06:46:07;8.20;99.90
21061;DHT22;10689;50.836;3.266;2022-11-24T06:48:32;8.20;99.90
21061;DHT22;10689;50.836;3.266;2022-11-24T06:51:05;8.10;99.90
21061;DHT22;10689;50.836;3.266;2022-11-24T06:53:36;8.10;99.90
21061;DHT22;10689;50.836;3.266;2022-11-24T06:56:07;8.10;99.90
21061;DHT22;10689;50.836;3.266;2022-11-24T06:58:33;8.00;99.90
21061;DHT22;10689;50.836;3.266;2022-11-24T07:00:58;8.00;99.90
21061;DHT22;10689;50.836;3.266;2022-11-24T07:03:25;7.90;99.90
21061;DHT22;10689;50.836;3.266;2022-11-24T07:05:57;7.90;99.90
21061;DHT22;10689;50.836;3.266;2022-11-24T07:08:23;8.10;99.90
21061;DHT22;10689;50.836;3.266;2022-11-24T07:10:55;8.20;99.90
21061;DHT22;10689;50.836;3.266;2022-11-24T07:13:21;8.20;99.90
21061;DHT22;10689;50.836;3.266;2022-11-24T07:15:46;8.10;99.90
21061;DHT22;10689;50.836;3.266;2022-11-24T07:18:13;8.00;99.90
21061;DHT22;10689;50.836;3.266;2022-11-24T07:20:41;8.20;99.90
21061;DHT22;10689;50.836;3.266;2022-11-24T07:23:08;8.30;99.90
21061;DHT22;10689;50.836;3.266;2022-11-24T07:25:36;8.30;99.90
21061;DHT22;10689;50.836;3.266;2022-11-24T07:28:02;8.30;99.90
21061;DHT22;10689;50.836;3.266;2022-11-24T07:30:28;8.30;99.90
21061;DHT22;10689;50.836;3.266;2022-11-24T07:33:00;8.20;99.90
21061;DHT22;10689;50.836;3.266;2022-11-24T07:35:27;8.20;99.90
21061;DHT22;10689;50.836;3.266;2022-11-24T07:37:57;8.30;99.90
21061;DHT22;10689;50.836;3.266;2022-11-24T07:40:26;8.30;99.90
21061;DHT22;10689;50.836;3.266;2022-11-24T07:42:52;8.20;99.90
21061;DHT22;10689;50.836;3.266;2022-11-24T07:45:18;8.20;99.90
21061;DHT22;10689;50.836;3.266;2022-11-24T07:47:44;8.20;99.90
21061;DHT22;10689;50.836;3.266;2022-11-24T07:50:10;8.20;99.90
21061;DHT22;10689;50.836;3.266;2022-11-24T07:52:37;8.20;99.90
21061;DHT22;10689;50.836;3.266;2022-11-24T07:55:03;8.30;99.90
21061;DHT22;10689;50.836;3.266;2022-11-24T07:57:32;8.20;99.90
21061;DHT22;10689;50.836;3.266;2022-11-24T07:59:58;8.30;99.90
21061;DHT22;10689;50.836;3.266;2022-11-24T08:02:24;8.30;99.90
21061;DHT22;10689;50.836;3.266;2022-11-24T08:04:52;8.40;99.90
21061;DHT22;10689;50.836;3.266;2022-11-24T08:07:19;8.40;99.90
21061;DHT22;10689;50.836;3.266;2022-11-24T08:09:44;8.50;99.90
21061;DHT22;10689;50.836;3.266;2022-11-24T08:12:14;8.60;99.90
21061;DHT22;10689;50.836;3.266;2022-11-24T08:14:49;8.50;99.90
21061;DHT22;10689;50.836;3.266;2022-11-24T08:17:18;8.50;99.90
21061;DHT22;10689;50.836;3.266;2022-11-24T08:19:48;8.60;99.90
21061;DHT22;10689;50.836;3.266;2022-11-24T08:22:16;8.60;99.90
21061;DHT22;10689;50.836;3.266;2022-11-24T08:24:42;8.70;99.90
21061;DHT22;10689;50.836;3.266;2022-11-24T08:27:15;8.70;99.90
21061;DHT22;10689;50.836;3.266;2022-11-24T08:29:41;8.70;99.90
21061;DHT22;10689;50.836;3.266;2022-11-24T08:32:07;8.80;99.90
21061;DHT22;10689;50.836;3.266;2022-11-24T08:34:34;8.80;99.90
21061;DHT22;10689;50.836;3.266;2022-11-24T08:36:59;8.90;99.90
21061;DHT22;10689;50.836;3.266;2022-11-24T08:39:25;9.00;99.90
21061;DHT22;10689;50.836;3.266;2022-11-24T08:41:51;9.20;99.90
21061;DHT22;10689;50.836;3.266;2022-11-24T08:44:16;9.30;99.90
21061;DHT22;10689;50.836;3.266;2022-11-24T08:46:43;9.50;99.90
21061;DHT22;10689;50.836;3.266;2022-11-24T08:49:11;9.60;99.90
21061;DHT22;10689;50.836;3.266;2022-11-24T08:51:42;9.60;99.90
21061;DHT22;10689;50.836;3.266;2022-11-24T08:54:09;9.70;99.90
21061;DHT22;10689;50.836;3.266;2022-11-24T08:56:35;9.70;99.90
21061;DHT22;10689;50.836;3.266;2022-11-24T08:59:01;9.60;99.90
21061;DHT22;10689;50.836;3.266;2022-11-24T09:01:27;9.50;99.90
21061;DHT22;10689;50.836;3.266;2022-11-24T09:03:56;9.50;99.90
21061;DHT22;10689;50.836;3.266;2022-11-24T09:06:27;9.50;99.90
21061;DHT22;10689;50.836;3.266;2022-11-24T09:08:56;9.60;99.90
21061;DHT22;10689;50.836;3.266;2022-11-24T09:11:28;9.50;99.90
21061;DHT22;10689;50.836;3.266;2022-11-24T09:13:55;9.40;99.90
21061;DHT22;10689;50.836;3.266;2022-11-24T09:16:23;9.50;99.90
21061;DHT22;10689;50.836;3.266;2022-11-24T09:18:58;9.50;99.90
21061;DHT22;10689;50.836;3.266;2022-11-24T09:21:27;9.60;99.90
21061;DHT22;10689;50.836;3.266;2022-11-24T09:23:54;9.50;99.90
21061;DHT22;10689;50.836;3.266;2022-11-24T09:26:22;9.60;99.90
21061;DHT22;10689;50.836;3.266;2022-11-24T09:28:49;9.50;99.90
21061;DHT22;10689;50.836;3.266;2022-11-24T09:31:18;9.70;99.90
21061;DHT22;10689;50.836;3.266;2022-11-24T09:33:45;9.70;99.90
21061;DHT22;10689;50.836;3.266;2022-11-24T09:36:12;9.70;99.90
21061;DHT22;10689;50.836;3.266;2022-11-24T09:38:39;9.80;99.90
21061;DHT22;10689;50.836;3.266;2022-11-24T09:41:54;9.80;99.90
21061;DHT22;10689;50.836;3.266;2022-11-24T09:50:25;10.10;99.90
21061;DHT22;10689;50.836;3.266;2022-11-24T09:53:17;10.30;99.90
21061;DHT22;10689;50.836;3.266;2022-11-24T09:55:52;10.30;99.90
21061;DHT22;10689;50.836;3.266;2022-11-24T09:58:42;10.30;99.90
21061;DHT22;10689;50.836;3.266;2022-11-24T10:01:17;10.30;99.90
21061;DHT22;10689;50.836;3.266;2022-11-24T10:03:51;10.30;99.90
21061;DHT22;10689;50.836;3.266;2022-11-24T10:06:22;10.40;99.90
21061;DHT22;10689;50.836;3.266;2022-11-24T10:11:27;10.70;99.90
21061;DHT22;10689;50.836;3.266;2022-11-24T10:17:52;10.80;99.90
21061;DHT22;10689;50.836;3.266;2022-11-24T10:20:15;10.90;99.90
21061;DHT22;10689;50.836;3.266;2022-11-24T10:28:15;11.10;99.90
21061;DHT22;10689;50.836;3.266;2022-11-24T10:30:41;11.20;99.90
21061;DHT22;10689;50.836;3.266;2022-11-24T10:33:19;11.20;99.90
21061;DHT22;10689;50.836;3.266;2022-11-24T10:35:55;11.20;99.90
21061;DHT22;10689;50.836;3.266;2022-11-24T10:38:37;11.30;99.90
21061;DHT22;10689;50.836;3.266;2022-11-24T10:41:15;11.50;99.90
21061;DHT22;10689;50.836;3.266;2022-11-24T10:43:43;11.60;99.90
21061;DHT22;10689;50.836;3.266;2022-11-24T10:46:38;11.70;99.90
21061;DHT22;10689;50.836;3.266;2022-11-24T10:49:16;11.80;99.90
21061;DHT22;10689;50.836;3.266;2022-11-24T10:54:17;11.80;99.90
21061;DHT22;10689;50.836;3.266;2022-11-24T10:56:46;11.80;99.90
21061;DHT22;10689;50.836;3.266;2022-11-24T11:01:53;11.90;99.90
21061;DHT22;10689;50.836;3.266;2022-11-24T11:04:34;12.00;99.90
21061;DHT22;10689;50.836;3.266;2022-11-24T11:07:16;12.00;99.90
21061;DHT22;10689;50.836;3.266;2022-11-24T11:09:46;12.00;99.90
21061;DHT22;10689;50.836;3.266;2022-11-24T11:12:20;12.10;99.90
21061;DHT22;10689;50.836;3.266;2022-11-24T11:14:49;12.20;99.90
21061;DHT22;10689;50.836;3.266;2022-11-24T11:17:35;12.20;99.90
21061;DHT22;10689;50.836;3.266;2022-11-24T11:20:26;12.20;99.90
21061;DHT22;10689;50.836;3.266;2022-11-24T11:22:52;12.20;99.90
21061;DHT22;10689;50.836;3.266;2022-11-24T11:25:34;12.40;99.90
21061;DHT22;10689;50.836;3.266;2022-11-24T11:28:29;12.40;99.90
21061;DHT22;10689;50.836;3.266;2022-11-24T11:30:57;12.40;99.90
21061;DHT22;10689;50.836;3.266;2022-11-24T11:33:28;12.50;99.90
21061;DHT22;10689;50.836;3.266;2022-11-24T11:35:58;12.60;99.90
21061;DHT22;10689;50.836;3.266;2022-11-24T11:38:34;12.60;99.90
21061;DHT22;10689;50.836;3.266;2022-11-24T11:41:01;12.70;99.90
21061;DHT22;10689;50.836;3.266;2022-11-24T11:43:33;12.80;99.90
21061;DHT22;10689;50.836;3.266;2022-11-24T11:46:19;13.00;99.90
21061;DHT22;10689;50.836;3.266;2022-11-24T11:48:48;12.90;99.90
21061;DHT22;10689;50.836;3.266;2022-11-24T11:54:29;13.00;99.90
21061;DHT22;10689;50.836;3.266;2022-11-24T11:57:34;13.20;99.90
21061;DHT22;10689;50.836;3.266;2022-11-24T12:00:14;13.30;99.90
21061;DHT22;10689;50.836;3.266;2022-11-24T12:08:55;13.30;99.90
21061;DHT22;10689;50.836;3.266;2022-11-24T12:11:46;13.40;99.90
21061;DHT22;10689;50.836;3.266;2022-11-24T12:17:11;13.30;99.90
21061;DHT22;10689;50.836;3.266;2022-11-24T12:25:27;13.30;99.90
21061;DHT22;10689;50.836;3.266;2022-11-24T12:33:43;13.00;99.90
21061;DHT22;10689;50.836;3.266;2022-11-24T12:36:49;13.00;99.90
21061;DHT22;10689;50.836;3.266;2022-11-24T12:39:51;13.10;99.90
21061;DHT22;10689;50.836;3.266;2022-11-24T12:42:51;13.00;99.90
21061;DHT22;10689;50.836;3.266;2022-11-24T12:51:03;13.00;99.90
21061;DHT22;10689;50.836;3.266;2022-11-24T12:53:33;13.00;99.90
21061;DHT22;10689;50.836;3.266;2022-11-24T12:56:06;12.90;99.90
21061;DHT22;10689;50.836;3.266;2022-11-24T13:02:24;12.80;99.90
21061;DHT22;10689;50.836;3.266;2022-11-24T13:04:44;12.80;99.90
21061;DHT22;10689;50.836;3.266;2022-11-24T13:07:19;12.80;99.90
21061;DHT22;10689;50.836;3.266;2022-11-24T13:15:24;12.90;99.90
21061;DHT22;10689;50.836;3.266;2022-11-24T13:17:52;12.90;99.90
21061;DHT22;10689;50.836;3.266;2022-11-24T13:22:57;12.90;99.90
21061;DHT22;10689;50.836;3.266;2022-11-24T13:25:29;12.80;99.90
21061;DHT22;10689;50.836;3.266;2022-11-24T13:27:58;12.70;99.90
21061;DHT22;10689;50.836;3.266;2022-11-24T13:33:00;12.70;99.90
21061;DHT22;10689;50.836;3.266;2022-11-24T13:35:27;12.70;99.90
21061;DHT22;10689;50.836;3.266;2022-11-24T13:37:54;12.70;99.90
21061;DHT22;10689;50.836;3.266;2022-11-24T13:45:47;12.90;99.90
21061;DHT22;10689;50.836;3.266;2022-11-24T13:55:57;12.90;99.90
21061;DHT22;10689;50.836;3.266;2022-11-24T13:58:28;12.80;99.90
21061;DHT22;10689;50.836;3.266;2022-11-24T14:01:03;12.70;99.90
21061;DHT22;10689;50.836;3.266;2022-11-24T14:06:43;12.40;99.90
21061;DHT22;10689;50.836;3.266;2022-11-24T14:09:41;12.30;99.90
21061;DHT22;10689;50.836;3.266;2022-11-24T14:12:18;12.30;99.90
21061;DHT22;10689;50.836;3.266;2022-11-24T14:14:49;12.20;99.90
21061;DHT22;10689;50.836;3.266;2022-11-24T14:17:21;12.10;99.90
21061;DHT22;10689;50.836;3.266;2022-11-24T14:19:49;12.20;99.90
21061;DHT22;10689;50.836;3.266;2022-11-24T14:25:29;12.20;99.90
21061;DHT22;10689;50.836;3.266;2022-11-24T14:27:55;12.20;99.90
21061;DHT22;10689;50.836;3.266;2022-11-24T14:30:24;12.30;99.90
21061;DHT22;10689;50.836;3.266;2022-11-24T14:32:57;12.40;99.90
21061;DHT22;10689;50.836;3.266;2022-11-24T14:35:34;12.40;99.90
21061;DHT22;10689;50.836;3.266;2022-11-24T14:38:02;12.40;99.90
21061;DHT22;10689;50.836;3.266;2022-11-24T14:40:49;12.40;99.90
21061;DHT22;10689;50.836;3.266;2022-11-24T14:45:53;12.50;99.90
21061;DHT22;10689;50.836;3.266;2022-11-24T14:48:25;12.50;99.90
21061;DHT22;10689;50.836;3.266;2022-11-24T14:51:04;12.50;99.90
21061;DHT22;10689;50.836;3.266;2022-11-24T14:53:31;12.40;99.90
21061;DHT22;10689;50.836;3.266;2022-11-24T14:56:25;12.50;99.90
21061;DHT22;10689;50.836;3.266;2022-11-24T14:58:52;12.50;99.90
21061;DHT22;10689;50.836;3.266;2022-11-24T15:01:20;12.40;99.90
21061;DHT22;10689;50.836;3.266;2022-11-24T15:04:13;12.40;99.90
21061;DHT22;10689;50.836;3.266;2022-11-24T15:06:59;12.40;99.90
21061;DHT22;10689;50.836;3.266;2022-11-24T15:09:47;12.30;99.90
21061;DHT22;10689;50.836;3.266;2022-11-24T15:12:31;12.30;99.90
21061;DHT22;10689;50.836;3.266;2022-11-24T15:15:04;12.30;99.90
21061;DHT22;10689;50.836;3.266;2022-11-24T15:17:33;12.30;99.90
21061;DHT22;10689;50.836;3.266;2022-11-24T15:20:06;12.20;99.90
21061;DHT22;10689;50.836;3.266;2022-11-24T15:22:35;12.10;99.90
21061;DHT22;10689;50.836;3.266;2022-11-24T15:25:02;12.10;99.90
21061;DHT22;10689;50.836;3.266;2022-11-24T15:27:49;12.00;99.90
21061;DHT22;10689;50.836;3.266;2022-11-24T15:30:15;12.00;99.90
21061;DHT22;10689;50.836;3.266;2022-11-24T15:32:54;11.90;99.90
21061;DHT22;10689;50.836;3.266;2022-11-24T15:35:21;12.00;99.90
21061;DHT22;10689;50.836;3.266;2022-11-24T15:37:49;11.90;99.90
21061;DHT22;10689;50.836;3.266;2022-11-24T15:40:16;11.90;99.90
21061;DHT22;10689;50.836;3.266;2022-11-24T15:42:49;11.90;99.90
21061;DHT22;10689;50.836;3.266;2022-11-24T15:45:15;11.90;99.90
21061;DHT22;10689;50.836;3.266;2022-11-24T15:47:41;11.90;99.90
21061;DHT22;10689;50.836;3.266;2022-11-24T15:50:07;11.80;99.90
21061;DHT22;10689;50.836;3.266;2022-11-24T15:52:33;11.80;99.90
21061;DHT22;10689;50.836;3.266;2022-11-24T15:54:59;11.70;99.90
21061;DHT22;10689;50.836;3.266;2022-11-24T15:57:25;11.60;99.90
21061;DHT22;10689;50.836;3.266;2022-11-24T15:59:52;11.50;99.90
21061;DHT22;10689;50.836;3.266;2022-11-24T16:02:17;11.40;99.90
21061;DHT22;10689;50.836;3.266;2022-11-24T16:04:48;11.30;99.90
21061;DHT22;10689;50.836;3.266;2022-11-24T16:07:14;11.30;99.90
21061;DHT22;10689;50.836;3.266;2022-11-24T16:09:43;11.30;99.90
21061;DHT22;10689;50.836;3.266;2022-11-24T16:12:08;11.20;99.90
21061;DHT22;10689;50.836;3.266;2022-11-24T16:14:35;11.30;99.90
21061;DHT22;10689;50.836;3.266;2022-11-24T16:17:00;11.30;99.90
21061;DHT22;10689;50.836;3.266;2022-11-24T16:19:27;11.20;99.90
21061;DHT22;10689;50.836;3.266;2022-11-24T16:21:53;11.20;99.90
21061;DHT22;10689;50.836;3.266;2022-11-24T16:24:18;11.20;99.90
21061;DHT22;10689;50.836;3.266;2022-11-24T16:26:44;11.10;99.90
21061;DHT22;10689;50.836;3.266;2022-11-24T16:29:10;11.20;99.90
21061;DHT22;10689;50.836;3.266;2022-11-24T16:31:36;11.10;99.90
21061;DHT22;10689;50.836;3.266;2022-11-24T16:34:03;11.10;99.90
21061;DHT22;10689;50.836;3.266;2022-11-24T16:36:29;11.00;99.90
21061;DHT22;10689;50.836;3.266;2022-11-24T16:38:55;11.10;99.90
21061;DHT22;10689;50.836;3.266;2022-11-24T16:41:20;11.10;99.90
21061;DHT22;10689;50.836;3.266;2022-11-24T16:43:47;11.00;99.90
21061;DHT22;10689;50.836;3.266;2022-11-24T16:48:40;10.90;99.90
21061;DHT22;10689;50.836;3.266;2022-11-24T16:51:09;10.90;99.90
21061;DHT22;10689;50.836;3.266;2022-11-24T16:53:38;10.90;99.90
21061;DHT22;10689;50.836;3.266;2022-11-24T16:56:04;10.90;99.90
21061;DHT22;10689;50.836;3.266;2022-11-24T16:58:31;10.90;99.90
21061;DHT22;10689;50.836;3.266;2022-11-24T17:01:10;10.80;99.90
21061;DHT22;10689;50.836;3.266;2022-11-24T17:03:39;10.80;99.90
21061;DHT22;10689;50.836;3.266;2022-11-24T17:06:07;10.70;99.90
21061;DHT22;10689;50.836;3.266;2022-11-24T17:08:35;10.70;99.90
21061;DHT22;10689;50.836;3.266;2022-11-24T17:11:21;10.70;99.90
21061;DHT22;10689;50.836;3.266;2022-11-24T17:13:49;10.70;99.90
21061;DHT22;10689;50.836;3.266;2022-11-24T17:16:18;10.80;99.90
21061;DHT22;10689;50.836;3.266;2022-11-24T17:18:44;10.80;99.90
21061;DHT22;10689;50.836;3.266;2022-11-24T17:21:22;10.80;99.90
21061;DHT22;10689;50.836;3.266;2022-11-24T17:23:55;10.90;99.90
21061;DHT22;10689;50.836;3.266;2022-11-24T17:26:24;10.90;99.90
21061;DHT22;10689;50.836;3.266;2022-11-24T17:28:51;10.90;99.90
21061;DHT22;10689;50.836;3.266;2022-11-24T17:31:26;10.90;99.90